Pelham, AL (35124)

4:39 PM CST on February 08, 2016 (GMT -0600)
Holland Lakes | | Change Station
CLOSE
Current Station
Personal Weather Station
Location: Pelham, AL
Elevation: 452 ft
Nearby Weather Stations

Elev 452 ft 33.27 °N, 86.81 °W | Updated 56 seconds ago

Overcast
Overcast
48.4 °F
Feels Like 43 °F
N
15.0
Wind Variable Wind from NW
Gusts 24.0 mph

Today
High -- | Low -- °F
--% Chance of Precip.
Yesterday
High -- | Low -- °F
Precip. -- in
Pressure 29.85 in
Visibility 10.0 miles
Clouds Mostly Cloudy 8000 ft
Overcast 9000 ft
Windchill 43 °F
Dew Point 25 °F
Humidity 40%
Rainfall 0.00 in
Snow Depth Not available.
6:37 AM 5:25 PM
New Moon, 0% visible
METAR KEET 082153Z AUTO 30011G25KT 10SM BKN080 OVC090 10/M06 A2984 RMK AO2 SLP107 T01001056
Pressure 29.85 in
Visibility 10.0 miles
Clouds Mostly Cloudy 8000 ft
Overcast 9000 ft
Windchill 43 °F
Dew Point 25 °F
Humidity 40%
Rainfall 0.00 in
Snow Depth Not available.
6:37 AM 5:25 PM
New Moon, 0% visible
METAR KEET 082153Z AUTO 30011G25KT 10SM BKN080 OVC090 10/M06 A2984 RMK AO2 SLP107 T01001056

10-Day Weather Forecast

Almanac

Astronomy

Feb. 08, 2016 Rise Set
Actual Time
Civil Twilight
Nautical Twilight
Astronomical Twilight
Moon
Length of Visible Light
Length of Day
Tomorrow will be .
, % of the Moon is Illuminated

Today's Extremes

State Highs State Lows

Community

WunderPhotos

Upload Photos

1,891,518 photos uploaded!

WunderBlog® & News

Nearby

Air Quality

  Air Quality AQ Index Pollutant
Not available.

Snow Depth

Station Depth Elevation

Earthquake Activity

City Distance Mag. Time & Date
Minimum magnitude displayed is 2.5.

Coastal Water Temperatures

Place Temperature

Stations

Nearby Weather Stations

Station Location Temp. Windchill Dew Point Humidity Wind Precip. Elev Updated Type
                   

Watches & Warnings

There are currently no watches in effect.